• Join FlightAware (Why Join?)
  • Login
  • US Flag 
05:19PM EST


 

Airport Tracker/Info


-or-


 

Live Flight TrackerFlight Track Log ✈ N531K ✈ 30-Mar-2014 ✈ KTEB - KPBI

Flight Track Log - Related Links

Times and Time Zones

All times are in EDT time to prevent confusion due to time zone crossing. See the N531K flight status page for this flight to view local times or setup timezone preferences in your user account.

Time Position Orientation Groundspeed Altitude Reporting Facility
EDT Latitude Longitude Course Direction KTS MPH feet Rate Location/Type
01:26PM 40.8833 -74.0500 288° West 160 184 1,600  Level New York TRACON
01:27PM 40.9000 -74.1167 288° West 265 305 3,200 1,740 Climbing New York TRACON
01:28PM 40.8500 -74.1333 194° South 227 261 5,100 1,680 Climbing New York TRACON
01:29PM 40.7833 -74.1500 191° South 233 268 6,600 1,200 Climbing New York TRACON
01:30PM 40.7167 -74.1833 201° Southwest 257 296 7,600 1,020 Climbing New York TRACON
01:31PM 40.6500 -74.2500 217° Southwest 265 305 8,700 2,400 Climbing New York TRACON
01:34PM 40.5186 -74.2572 182° South 204 235 16,000 2,340 Climbing New York Center
01:35PM 40.4542 -74.2514 176° South 222 255 16,900 480 Climbing New York Center
01:36PM 40.3956 -74.2592 186° South 233 268 17,000  Climbing New York Center
01:37PM 40.3158 -74.2714 187° South 258 297 16,900 -60 Descending New York Center
01:38PM 40.2603 -74.3203 214° Southwest 264 304 16,900 -900 Level New York Center
01:39PM 40.1803 -74.3461 194° South 264 304 15,200 -1,860 Descending New York Center
01:40PM 40.1075 -74.3397 176° South 264 304 13,200 -2,280 Descending New York Center
01:41PM 40.0400 -74.2956 153° Southeast 274 315 10,700 -1,620 Descending New York Center
01:42PM 39.9789 -74.3194 197° South 251 289 10,000 -240 Descending New York Center
01:44PM 39.8472 -74.4106 208° Southwest 261 300 10,100  Climbing Washington Center
01:45PM 39.7750 -74.4872 219° Southwest 309 356 10,100 960 Level Washington Center
01:45PM 39.7072 -74.5800 226° Southwest 343 395 12,000 1,860 Climbing Washington Center
01:46PM 39.6433 -74.6644 226° Southwest 348 400 13,800 1,680 Climbing Washington Center
01:47PM 39.5772 -74.7489 225° Southwest 342 394 15,400 1,440 Climbing Washington Center
01:49PM 39.5153 -74.8331 226° Southwest 330 380 16,800 780 Climbing Washington Center
01:50PM 39.4450 -74.9250 225° Southwest 337 388 17,000 1,020 Climbing Washington Center
01:50PM 39.3683 -75.0225 225° Southwest 363 418 18,900 1,500 Climbing Washington Center
01:52PM 39.2894 -75.1142 222° Southwest 381 438 20,000 1,500 Climbing Washington Center
01:53PM 39.1856 -75.1606 199° South 386 444 22,000 2,220 Climbing Washington Center
01:54PM 39.0856 -75.2039 199° South 386 444 24,500 2,400 Climbing Washington Center
01:54PM 38.9878 -75.2444 198° South 381 438 26,800 2,220 Climbing Washington Center
01:56PM 38.8942 -75.2850 199° South 369 425 29,000 1,980 Climbing Washington Center
01:57PM 38.8003 -75.3225 197° South 364 419 30,900 1,740 Climbing Washington Center
01:58PM 38.7067 -75.3603 197° South 364 419 32,600 1,260 Climbing Washington Center
01:59PM 38.6128 -75.3978 197° South 364 419 33,400 600 Climbing Washington Center
02:00PM 38.5169 -75.4431 200° South 364 419 33,900 360 Climbing Washington Center
02:01PM 38.4108 -75.4858 198° South 382 440 34,200 660 Climbing Washington Center
02:02PM 38.3294 -75.5203 198° South 388 447 35,300 1,020 Climbing Washington Center
02:03PM 38.2106 -75.5839 203° Southwest 388 447 36,300 900 Climbing Washington Center
02:04PM 38.1106 -75.6286 199° South 388 447 37,200 780 Climbing Washington Center
02:05PM 38.0147 -75.6761 201° Southwest 388 447 37,900 300 Climbing Washington Center
02:05PM 37.9167 -75.7208 200° South 382 440 37,900  Level Washington Center
02:07PM 37.8103 -75.7678 199° South 393 452 37,900  Level Washington Center
02:08PM 37.7017 -75.8150 199° South 405 466 37,900  Level Washington Center
02:09PM 37.5908 -75.8644 199° South 417 480 37,900  Level Washington Center
02:10PM 37.4803 -75.9164 200° South 422 486 37,900  Level Washington Center
02:10PM 37.3675 -75.9656 199° South 428 493 37,900  Level Washington Center
02:11PM 37.2547 -76.0172 200° South 428 493 37,900  Level Washington Center
02:13PM 37.1397 -76.0661 199° South 428 493 37,900  Level Washington Center
02:14PM 37.0289 -76.1175 200° South 428 493 37,900  Level Washington Center
02:14PM 36.9119 -76.1608 197° South 433 498 37,900  Level Washington Center
02:15PM 36.8011 -76.2092 199° South 433 498 37,900  Level Washington Center
02:17PM 36.6883 -76.2628 201° Southwest 433 498 37,900  Level Washington Center
02:18PM 36.5794 -76.3111 200° South 427 491 37,900  Level Washington Center
02:19PM 36.4686 -76.3564 198° South 427 491 37,900  Level Washington Center
02:19PM 36.3578 -76.4044 199° South 427 491 37,900  Level Washington Center
02:20PM 36.2469 -76.4522 199° South 427 491 37,900  Level Washington Center
02:21PM 36.1381 -76.4947 197° South 427 491 37,900  Level Washington Center
02:23PM 36.0375 -76.5425 201° Southwest 427 491 37,900  Level Washington Center
02:24PM 35.9244 -76.5872 198° South 427 491 37,900  Level Washington Center
02:24PM 35.8136 -76.6344 199° South 427 491 37,900  Level Washington Center
02:26PM 35.7047 -76.6792 198° South 427 491 37,900  Level Washington Center
02:27PM 35.5978 -76.7261 200° South 422 486 37,900  Level Washington Center
02:28PM 35.4889 -76.7706 198° South 422 486 37,900  Level Washington Center
02:28PM 35.3842 -76.8150 199° South 417 480 37,900  Level Washington Center
02:29PM 35.2731 -76.8617 199° South 417 480 37,900  Level Washington Center
02:30PM 35.1639 -76.9056 198° South 417 480 37,900  Level Washington Center
02:32PM 35.0467 -76.9569 200° South 417 480 37,900  Level Washington Center
02:33PM 34.9356 -77.0033 199° South 417 480 37,900  Level Washington Center
02:33PM 34.8264 -77.0469 198° South 417 480 37,900  Level Washington Center
02:35PM 34.7153 -77.0931 199° South 417 480 37,900  Level Washington Center
02:36PM 34.6061 -77.1389 199° South 417 480 37,900  Level Washington Center
02:37PM 34.4972 -77.1847 199° South 417 480 37,900  Level Washington Center
02:38PM 34.3881 -77.2278 198° South 417 480 37,900  Level Washington Center
02:39PM 34.2914 -77.2686 199° South 412 474 37,900  Level Washington Center
02:40PM 34.1825 -77.3117 198° South 412 474 37,900  Level Washington Center
02:41PM 33.9608 -77.3994 198° South 433 498 37,900  Level Jacksonville Center
02:42PM 33.8483 -77.4467 199° South 433 498 37,900  Level Jacksonville Center
02:43PM 33.7394 -77.4883 198° South 433 498 37,900  Level Jacksonville Center
02:44PM 33.6286 -77.5350 199° South 433 498 37,900  Level Jacksonville Center
02:45PM 33.5200 -77.5789 199° South 427 491 37,900  Level Jacksonville Center
02:46PM 33.4092 -77.6228 198° South 422 486 37,900  Level Jacksonville Center
02:47PM 33.3006 -77.6667 199° South 417 480 37,900  Level Jacksonville Center
02:48PM 33.1917 -77.7103 199° South 417 480 37,900  Level Jacksonville Center
02:49PM 33.0828 -77.7511 197° South 423 487 37,900  Level Jacksonville Center
02:50PM 32.9719 -77.7972 199° South 423 487 37,900  Level Jacksonville Center
02:51PM 32.8608 -77.8406 198° South 423 487 37,900  Level Jacksonville Center
02:52PM 32.7519 -77.8811 197° South 418 481 37,900  Level Jacksonville Center
02:53PM 32.6431 -77.9267 199° South 418 481 37,900  Level Jacksonville Center
02:54PM 32.5342 -77.9697 198° South 418 481 37,900  Level Jacksonville Center
02:55PM 32.4253 -78.0125 198° South 418 481 37,900  Level Jacksonville Center
02:56PM 32.3161 -78.0478 195° South 418 481 37,900  Level Jacksonville Center
02:57PM 32.2111 -78.0925 200° South 418 481 37,900  Level Jacksonville Center
02:58PM 32.1022 -78.1350 198° South 418 481 37,900  Level Jacksonville Center
02:59PM 31.9953 -78.1750 198° South 418 481 37,900  Level Jacksonville Center
03:00PM 31.8903 -78.2194 200° South 413 475 37,900  Level Jacksonville Center
03:01PM 31.7731 -78.2669 199° South 413 475 37,900  Level Jacksonville Center
03:02PM 31.6661 -78.3064 197° South 401 461 37,900  Level Jacksonville Center
03:03PM 31.5611 -78.3458 198° South 396 456 37,900  Level Jacksonville Center
03:04PM 31.4519 -78.3875 198° South 401 461 37,900  Level Jacksonville Center
03:05PM 31.3489 -78.4267 198° South 401 461 37,900  Level Jacksonville Center
03:06PM 31.2378 -78.4708 199° South 396 456 37,900  Level Jacksonville Center
03:07PM 31.1286 -78.5122 198° South 411 473 37,900  Level Jacksonville Center
03:08PM 31.0253 -78.5486 197° South 400 460 37,900  Level Jacksonville Center
03:09PM 30.9161 -78.5922 199° South 406 467 37,900  Level Jacksonville Center
03:10PM 30.8028 -78.6336 197° South 406 467 37,900  Level Jacksonville Center
03:11PM 30.6997 -78.6722 198° South 419 482 37,900  Level Jacksonville Center
03:13PM 30.5369 -78.7314 197° South 424 488 37,900  Level Miami Center
03:14PM 30.4322 -78.7703 198° South 419 482 37,900  Level Miami Center
03:15PM 30.3211 -78.8092 197° South 425 489 37,900  Level Miami Center
03:16PM 30.2103 -78.8481 197° South 425 489 37,900 -180 Level Miami Center
03:17PM 30.1033 -78.8867 197° South 425 489 37,600 -780 Descending Miami Center
03:18PM 29.9964 -78.9325 200° South 419 482 36,400 -900 Descending Miami Center
03:19PM 29.8833 -78.9664 195° South 419 482 35,900 -240 Descending Miami Center
03:20PM 29.7783 -79.0050 198° South 419 482 36,000  Climbing Miami Center
03:21PM 29.6656 -79.0289 190° South 413 475 35,900  Descending Miami Center
03:22PM 29.5483 -79.0433 186° South 419 482 36,000  Climbing Miami Center
03:23PM 29.4314 -79.0647 189° South 419 482 36,000  Level Miami Center
03:24PM 29.3122 -79.0861 189° South 431 496 36,000  Level Miami Center
03:25PM 29.1992 -79.1100 190° South 426 490 36,000 -600 Level Miami Center
03:26PM 29.0819 -79.1292 188° South 426 490 34,900 -1,500 Descending Miami Center
03:27PM 28.9731 -79.1481 189° South 414 476 33,000 -1,920 Descending Miami Center
03:28PM 28.8686 -79.1672 189° South 399 459 31,100 -1,800 Descending Miami Center
03:29PM 28.7556 -79.1864 188° South 399 459 29,400 -1,800 Descending Miami Center
03:30PM 28.6383 -79.2075 189° South 413 475 27,600 -1,740 Descending Miami Center
03:31PM 28.5169 -79.2286 189° South 426 490 26,000 -1,440 Descending Miami Center
03:32PM 28.4039 -79.2522 190° South 432 497 24,800 -1,320 Descending Miami Center
03:33PM 28.2867 -79.2708 188° South 427 491 23,400 -1,800 Descending Miami Center
03:34PM 28.1756 -79.2944 191° South 427 491 21,200 -2,160 Descending Miami Center
03:35PM 28.0850 -79.3442 206° Southwest 396 456 19,100 -2,040 Descending Miami Center
03:36PM 28.0028 -79.3919 207° Southwest 346 398 17,200 -1,800 Descending Miami Center
03:37PM 27.9164 -79.4392 206° Southwest 351 404 15,500 -1,500 Descending Miami Center
03:38PM 27.8297 -79.4914 208° Southwest 351 404 14,300 -1,200 Descending Miami Center
03:39PM 27.7411 -79.5433 207° Southwest 356 410 13,100 -660 Descending Miami Center
03:40PM 27.6461 -79.5950 206° Southwest 370 426 13,000 -60 Descending Miami Center
03:41PM 27.5639 -79.6422 207° Southwest 369 425 13,000 -540 Level Miami Center
03:42PM 27.4689 -79.6936 206° Southwest 363 418 12,000 -1,440 Descending Miami Center
03:43PM 27.3803 -79.7453 207° Southwest 363 418 10,200 -1,740 Descending Miami Center
03:44PM 27.2872 -79.7944 205° Southwest 363 418 8,600 -1,140 Descending Miami Center
03:45PM 27.2114 -79.8369 206° Southwest 339 390 8,000 -300 Descending Miami Center
03:46PM 27.1500 -79.8725 207° Southwest 296 341 8,000 -1,020 Level Miami Center
03:47PM 27.0581 -79.8725 180° South 290 334 6,000 -1,860 Descending Miami Center
03:48PM 26.9725 -79.8703 179° South 309 356 4,300 -1,080 Descending Miami Center
03:49PM 26.8947 -79.8939 195° South 298 343 3,900 -660 Descending Miami Center
03:50PM 26.8442 -79.9206 205° Southwest 251 289 3,000 -1,080 Descending Miami Center
03:51PM 26.7786 -79.9514 203° Southwest 239 275 1,800 -720 Descending Miami Center
03:52PM 26.7239 -79.9781 204° Southwest 234 269 1,600 -240 Descending Miami Center
03:55PM 26.6832 -80.0956 217° Southwest  Level Estimated
04:02PM 26.6832 -80.0956 110° East  Level Estimated
04:03PM 26.6832 -80.0956 110° East  Level Estimated
04:04PM 26.6832 -80.0956 110° East  Level Estimated
04:05PM 26.6832 -80.0956 110° East  Level Estimated